Time;durP1;ratioP1;P1;durP2;ratioP2;P2;SDS_P1;SDS_P2;PMS_P1;PMS_P2;Temp;Humidity;BMP_temperature;BMP_pressure;BME280_temperature;BME280_humidity;BME280_pressure;Samples;Min_cycle;Max_cycle;Signal;HPM_P1;HPM_P2
2021/09/16 00:01:58;;;;;;;4.30;0.43;;;;;;;;;;5032705;28;20032;-71
2021/09/16 00:04:26;;;;;;;1.75;0.10;;;;;;;;;;5028067;28;20153;-71
2021/09/16 00:06:53;;;;;;;5.00;0.47;;;;;;;;;;5023514;28;20118;-71
2021/09/16 00:09:20;;;;;;;1.75;0.40;;;;;;;;;;5026230;28;20030;-71
2021/09/16 00:11:47;;;;;;;3.20;0.30;;;;;;;;;;5012617;28;20038;-71
2021/09/16 00:14:14;;;;;;;6.25;0.40;;;;;;;;;;5024856;28;20100;-71
2021/09/16 00:16:41;;;;;;;3.83;1.05;;;;;;;;;;5030695;28;20034;-72
2021/09/16 00:19:08;;;;;;;5.82;0.40;;;;;;;;;;5030521;28;20048;-71
2021/09/16 00:21:35;;;;;;;3.47;0.32;;;;;;;;;;5031896;28;20045;-72
2021/09/16 00:24:02;;;;;;;3.08;0.60;;;;;;;;;;5030330;28;20021;-73
2021/09/16 00:26:29;;;;;;;2.95;0.60;;;;;;;;;;5032171;28;20030;-72
2021/09/16 00:28:57;;;;;;;6.20;0.40;;;;;;;;;;5027874;28;20098;-72
2021/09/16 00:31:24;;;;;;;4.97;0.30;;;;;;;;;;5030680;28;20034;-72
2021/09/16 00:33:51;;;;;;;3.95;0.40;;;;;;;;;;5026910;28;20021;-72
2021/09/16 00:36:18;;;;;;;5.38;0.40;;;;;;;;;;5030882;28;20401;-71
2021/09/16 00:38:45;;;;;;;7.03;0.45;;;;;;;;;;5031204;28;20160;-71
2021/09/16 00:41:12;;;;;;;3.40;0.50;;;;;;;;;;5031651;28;20026;-70
2021/09/16 00:43:39;;;;;;;3.35;0.40;;;;;;;;;;5030068;28;20096;-72
2021/09/16 00:46:07;;;;;;;6.65;0.88;;;;;;;;;;5032031;28;20021;-71
2021/09/16 00:48:34;;;;;;;4.40;0.50;;;;;;;;;;5026467;28;20088;-70
2021/09/16 00:51:02;;;;;;;4.57;0.70;;;;;;;;;;5027141;28;20035;-72
2021/09/16 00:53:30;;;;;;;1.90;0.25;;;;;;;;;;5026197;28;20025;-73
2021/09/16 00:55:57;;;;;;;2.58;0.30;;;;;;;;;;5025612;28;20040;-72
2021/09/16 00:58:25;;;;;;;3.47;0.40;;;;;;;;;;5028063;28;20108;-71
2021/09/16 01:00:55;;;;;;;3.20;0.40;;;;;;;;;;5027351;28;20021;-71
2021/09/16 01:03:23;;;;;;;4.65;0.80;;;;;;;;;;5028199;28;20021;-71
2021/09/16 01:05:50;;;;;;;3.28;0.60;;;;;;;;;;5027451;28;20033;-70
2021/09/16 01:08:18;;;;;;;4.90;0.90;;;;;;;;;;5026984;28;20543;-69
2021/09/16 01:10:45;;;;;;;6.15;0.57;;;;;;;;;;5030630;28;20048;-70
2021/09/16 01:13:14;;;;;;;5.68;1.13;;;;;;;;;;5027564;28;20029;-71
2021/09/16 01:15:41;;;;;;;3.38;0.35;;;;;;;;;;5024070;28;20390;-67
2021/09/16 01:18:08;;;;;;;3.45;0.40;;;;;;;;;;5027137;28;20029;-69
2021/09/16 01:20:35;;;;;;;1.55;0.52;;;;;;;;;;5028776;28;20045;-69
2021/09/16 01:23:02;;;;;;;1.90;0.20;;;;;;;;;;5027030;28;20076;-68
2021/09/16 01:25:30;;;;;;;6.40;0.65;;;;;;;;;;5027744;28;20022;-68
2021/09/16 01:27:58;;;;;;;2.25;0.40;;;;;;;;;;5025317;28;20425;-68
2021/09/16 01:30:25;;;;;;;4.35;0.73;;;;;;;;;;5029373;28;20026;-68
2021/09/16 01:32:54;;;;;;;1.70;0.63;;;;;;;;;;5028694;28;20034;-67
2021/09/16 01:35:22;;;;;;;4.68;0.50;;;;;;;;;;5030786;28;20500;-67
2021/09/16 01:37:50;;;;;;;1.98;0.30;;;;;;;;;;5031522;28;20169;-67
2021/09/16 01:40:17;;;;;;;6.63;1.40;;;;;;;;;;5032255;28;20051;-68
2021/09/16 01:42:46;;;;;;;2.90;0.25;;;;;;;;;;5030869;28;20021;-67
2021/09/16 01:45:15;;;;;;;2.97;0.47;;;;;;;;;;5028380;28;20025;-68
2021/09/16 01:47:42;;;;;;;2.72;0.57;;;;;;;;;;5033081;28;20044;-68
2021/09/16 01:50:11;;;;;;;4.03;0.30;;;;;;;;;;5034562;28;20022;-67
2021/09/16 01:52:38;;;;;;;4.28;0.68;;;;;;;;;;5031530;28;20615;-66
2021/09/16 01:55:05;;;;;;;2.20;0.40;;;;;;;;;;5032190;28;20030;-68
2021/09/16 01:57:32;;;;;;;5.47;1.08;;;;;;;;;;5030076;28;20041;-66
2021/09/16 01:59:59;;;;;;;4.30;0.50;;;;;;;;;;5032615;28;20037;-68
2021/09/16 02:02:27;;;;;;;4.57;0.22;;;;;;;;;;5031818;28;20518;-68
2021/09/16 02:04:54;;;;;;;4.07;0.93;;;;;;;;;;5031002;28;20505;-67
2021/09/16 02:07:21;;;;;;;2.90;0.40;;;;;;;;;;5031409;28;20041;-68
2021/09/16 02:09:48;;;;;;;2.50;0.15;;;;;;;;;;5028863;28;20029;-68
2021/09/16 02:12:15;;;;;;;2.38;0.45;;;;;;;;;;5032929;28;20356;-68
2021/09/16 02:14:42;;;;;;;9.73;0.57;;;;;;;;;;5030430;28;20018;-67
2021/09/16 02:17:09;;;;;;;1.95;0.20;;;;;;;;;;5032067;28;20033;-68
2021/09/16 02:19:36;;;;;;;1.58;0.45;;;;;;;;;;5032767;28;20072;-68
2021/09/16 02:22:04;;;;;;;2.10;0.20;;;;;;;;;;5030365;28;20076;-68
2021/09/16 02:24:31;;;;;;;2.70;0.85;;;;;;;;;;5027153;28;20033;-68
2021/09/16 02:26:58;;;;;;;2.50;0.20;;;;;;;;;;5031191;28;20026;-67
2021/09/16 02:29:25;;;;;;;1.73;0.20;;;;;;;;;;5032570;28;20026;-68
2021/09/16 02:31:52;;;;;;;2.17;0.30;;;;;;;;;;5031068;28;20037;-68
2021/09/16 02:34:19;;;;;;;2.08;0.20;;;;;;;;;;5030394;28;20493;-68
2021/09/16 02:36:46;;;;;;;3.83;0.20;;;;;;;;;;5034567;28;20037;-69
2021/09/16 02:39:13;;;;;;;3.85;0.35;;;;;;;;;;5033714;28;20022;-69
2021/09/16 02:41:44;;;;;;;1.35;0.20;;;;;;;;;;5031311;28;20026;-69
2021/09/16 02:44:11;;;;;;;2.75;0.25;;;;;;;;;;5029874;28;20038;-68
2021/09/16 02:46:38;;;;;;;0.82;0.20;;;;;;;;;;5029599;28;20029;-68
2021/09/16 02:49:05;;;;;;;2.45;0.60;;;;;;;;;;5024190;28;20026;-68
2021/09/16 02:51:32;;;;;;;2.35;0.20;;;;;;;;;;5034819;28;20033;-66
2021/09/16 02:53:59;;;;;;;1.70;0.10;;;;;;;;;;5028380;28;20387;-68
2021/09/16 02:56:26;;;;;;;3.13;0.30;;;;;;;;;;5030363;28;20069;-68
2021/09/16 02:58:53;;;;;;;2.17;0.20;;;;;;;;;;5030044;28;20025;-68
2021/09/16 03:01:20;;;;;;;0.70;0.10;;;;;;;;;;5032903;28;20045;-67
2021/09/16 03:03:48;;;;;;;3.55;0.30;;;;;;;;;;5027613;28;20021;-67
2021/09/16 03:06:15;;;;;;;2.58;0.57;;;;;;;;;;5029382;28;20455;-67
2021/09/16 03:08:42;;;;;;;1.83;0.38;;;;;;;;;;5029450;28;20029;-67
2021/09/16 03:11:09;;;;;;;1.50;0.35;;;;;;;;;;5031070;28;20461;-68
2021/09/16 03:13:36;;;;;;;1.58;0.20;;;;;;;;;;5030116;28;20513;-67
2021/09/16 03:16:03;;;;;;;2.58;0.30;;;;;;;;;;5028742;28;20037;-68
2021/09/16 03:18:30;;;;;;;1.75;0.63;;;;;;;;;;5029470;28;20034;-67
2021/09/16 03:20:57;;;;;;;3.70;0.68;;;;;;;;;;5029676;28;20617;-67
2021/09/16 03:23:24;;;;;;;0.73;0.20;;;;;;;;;;5025984;28;20075;-67
2021/09/16 03:25:52;;;;;;;2.97;0.30;;;;;;;;;;5031422;28;20037;-68
2021/09/16 03:28:19;;;;;;;1.30;0.20;;;;;;;;;;5029706;28;20056;-68
2021/09/16 03:30:46;;;;;;;3.53;0.73;;;;;;;;;;5030312;28;20029;-68
2021/09/16 03:33:13;;;;;;;1.48;0.52;;;;;;;;;;5028386;28;20096;-67
2021/09/16 03:35:41;;;;;;;5.03;0.30;;;;;;;;;;5031406;28;20417;-67
2021/09/16 03:38:08;;;;;;;5.82;0.40;;;;;;;;;;5029465;28;20394;-68
2021/09/16 03:40:35;;;;;;;2.90;0.30;;;;;;;;;;5025387;28;20093;-68
2021/09/16 03:43:02;;;;;;;1.70;0.20;;;;;;;;;;5024919;28;20490;-68
2021/09/16 03:45:29;;;;;;;2.90;0.30;;;;;;;;;;5029534;28;20032;-68
2021/09/16 03:47:56;;;;;;;2.00;0.30;;;;;;;;;;5028598;28;20017;-68
2021/09/16 03:50:23;;;;;;;3.70;0.80;;;;;;;;;;5028615;28;20111;-67
2021/09/16 03:52:50;;;;;;;4.03;0.40;;;;;;;;;;5028923;28;20435;-67
2021/09/16 03:55:18;;;;;;;3.22;0.30;;;;;;;;;;5028838;28;20053;-68
2021/09/16 03:57:45;;;;;;;1.25;0.20;;;;;;;;;;5029564;28;20040;-67
2021/09/16 04:00:12;;;;;;;1.77;0.40;;;;;;;;;;5011020;28;20037;-67
2021/09/16 04:02:40;;;;;;;4.75;0.32;;;;;;;;;;5028851;28;20029;-67
2021/09/16 04:05:07;;;;;;;1.63;0.20;;;;;;;;;;5019807;28;20061;-67
2021/09/16 04:07:34;;;;;;;2.40;0.30;;;;;;;;;;5027425;28;20108;-67
2021/09/16 04:10:01;;;;;;;1.58;0.40;;;;;;;;;;5023759;28;20017;-66
2021/09/16 04:12:28;;;;;;;4.68;0.73;;;;;;;;;;5029376;28;20045;-67
2021/09/16 04:14:55;;;;;;;1.95;0.17;;;;;;;;;;5031231;28;20068;-67
2021/09/16 04:17:22;;;;;;;3.10;0.30;;;;;;;;;;5038357;28;20078;-67
2021/09/16 04:19:50;;;;;;;0.65;0.20;;;;;;;;;;5021830;28;20065;-67
2021/09/16 04:22:21;;;;;;;1.25;0.20;;;;;;;;;;5030420;28;20045;-68
2021/09/16 04:24:48;;;;;;;3.58;0.32;;;;;;;;;;5031936;28;22852;-67
2021/09/16 04:27:15;;;;;;;0.82;0.35;;;;;;;;;;5033284;28;20028;-67
2021/09/16 04:29:42;;;;;;;1.27;0.20;;;;;;;;;;5023586;28;20034;-67
2021/09/16 04:32:11;;;;;;;2.60;0.20;;;;;;;;;;5025094;28;20063;-67
2021/09/16 04:34:38;;;;;;;3.15;0.65;;;;;;;;;;5028334;28;20034;-66
2021/09/16 04:37:06;;;;;;;2.55;0.17;;;;;;;;;;5031360;28;20549;-68
2021/09/16 04:39:33;;;;;;;2.10;0.20;;;;;;;;;;5027492;28;20034;-67
2021/09/16 04:42:00;;;;;;;2.78;0.82;;;;;;;;;;5027121;28;20116;-66
2021/09/16 04:44:27;;;;;;;1.42;0.20;;;;;;;;;;5045683;28;20396;-67
2021/09/16 04:46:54;;;;;;;0.90;0.10;;;;;;;;;;5042773;28;20033;-67
2021/09/16 04:49:21;;;;;;;4.32;0.50;;;;;;;;;;5041571;28;20090;-67
2021/09/16 04:51:49;;;;;;;3.83;0.93;;;;;;;;;;5037446;28;20060;-67
2021/09/16 04:54:16;;;;;;;1.67;0.20;;;;;;;;;;5033363;28;20631;-67
2021/09/16 04:56:43;;;;;;;2.20;0.30;;;;;;;;;;5029307;28;20030;-67
2021/09/16 04:59:10;;;;;;;4.00;0.35;;;;;;;;;;5032295;28;20066;-68
2021/09/16 05:01:37;;;;;;;3.55;0.43;;;;;;;;;;5028997;28;20041;-67
2021/09/16 05:04:05;;;;;;;1.83;0.30;;;;;;;;;;5029348;28;20050;-67
2021/09/16 05:06:32;;;;;;;1.63;0.30;;;;;;;;;;5027345;28;20165;-68
2021/09/16 05:08:59;;;;;;;1.27;0.25;;;;;;;;;;5037344;28;20029;-67
2021/09/16 05:11:26;;;;;;;1.20;0.20;;;;;;;;;;5033506;28;20438;-67
2021/09/16 05:13:53;;;;;;;2.15;0.15;;;;;;;;;;5035083;28;20033;-67
2021/09/16 05:16:20;;;;;;;0.73;0.10;;;;;;;;;;5030367;28;20415;-67
2021/09/16 05:18:48;;;;;;;2.42;0.20;;;;;;;;;;5030306;28;20032;-68
2021/09/16 05:21:15;;;;;;;3.33;0.45;;;;;;;;;;5034438;28;20432;-69
2021/09/16 05:23:42;;;;;;;1.75;0.20;;;;;;;;;;5032232;28;20497;-68
2021/09/16 05:26:09;;;;;;;1.02;0.20;;;;;;;;;;5034808;28;20105;-69
2021/09/16 05:28:36;;;;;;;1.85;0.20;;;;;;;;;;5032906;28;20100;-67
2021/09/16 05:31:04;;;;;;;1.95;0.63;;;;;;;;;;5034932;28;20071;-69
2021/09/16 05:33:31;;;;;;;0.88;0.20;;;;;;;;;;5029322;28;20033;-68
2021/09/16 05:35:58;;;;;;;2.67;0.30;;;;;;;;;;5029404;28;20017;-68
2021/09/16 05:38:25;;;;;;;0.80;0.20;;;;;;;;;;5031687;28;20041;-69
2021/09/16 05:40:52;;;;;;;1.48;0.25;;;;;;;;;;5040111;28;20029;-69
2021/09/16 05:43:19;;;;;;;2.15;0.10;;;;;;;;;;5041591;28;20096;-68
2021/09/16 05:45:47;;;;;;;1.13;0.17;;;;;;;;;;5036289;28;20112;-69
2021/09/16 05:48:14;;;;;;;0.40;0.20;;;;;;;;;;5037815;28;20022;-69
2021/09/16 05:50:41;;;;;;;0.55;0.30;;;;;;;;;;5035630;28;20021;-69
2021/09/16 05:53:09;;;;;;;0.57;0.03;;;;;;;;;;5033958;28;20036;-69
2021/09/16 05:55:39;;;;;;;0.17;0.10;;;;;;;;;;5037041;28;20072;-70
2021/09/16 05:58:07;;;;;;;2.08;0.10;;;;;;;;;;5022689;28;20091;-69
2021/09/16 06:00:35;;;;;;;2.50;0.15;;;;;;;;;;5034891;28;20025;-69
2021/09/16 06:03:02;;;;;;;3.83;0.47;;;;;;;;;;5032406;28;20085;-69
2021/09/16 06:05:29;;;;;;;1.10;0.20;;;;;;;;;;5034291;28;20505;-68
2021/09/16 06:07:56;;;;;;;1.60;0.30;;;;;;;;;;5026136;28;20026;-67
2021/09/16 06:10:23;;;;;;;3.17;0.40;;;;;;;;;;5033385;28;20032;-68
2021/09/16 06:12:50;;;;;;;2.90;0.30;;;;;;;;;;5029573;28;20032;-68
2021/09/16 06:15:17;;;;;;;1.48;0.30;;;;;;;;;;5032074;28;20105;-69
2021/09/16 06:17:45;;;;;;;0.50;0.10;;;;;;;;;;5030705;28;20048;-69
2021/09/16 06:20:12;;;;;;;3.30;0.40;;;;;;;;;;5031088;28;20073;-69
2021/09/16 06:22:39;;;;;;;1.75;0.30;;;;;;;;;;5025846;28;20108;-68
2021/09/16 06:25:07;;;;;;;2.75;0.57;;;;;;;;;;5033067;28;20021;-68
2021/09/16 06:27:35;;;;;;;3.38;0.45;;;;;;;;;;5028833;28;20037;-68
2021/09/16 06:30:02;;;;;;;4.82;0.63;;;;;;;;;;5032152;28;20030;-68
2021/09/16 06:32:29;;;;;;;3.17;0.35;;;;;;;;;;5033751;28;20215;-68
2021/09/16 06:34:56;;;;;;;2.10;0.28;;;;;;;;;;5039892;28;20056;-68
2021/09/16 06:37:23;;;;;;;3.50;0.82;;;;;;;;;;5024750;28;20394;-68
2021/09/16 06:39:50;;;;;;;4.22;0.30;;;;;;;;;;5030963;28;20026;-68
2021/09/16 06:42:18;;;;;;;2.30;0.20;;;;;;;;;;5032619;28;20060;-68
2021/09/16 06:44:45;;;;;;;2.38;0.20;;;;;;;;;;5032196;28;20033;-68
2021/09/16 06:47:12;;;;;;;1.52;0.30;;;;;;;;;;5040421;28;20025;-68
2021/09/16 06:49:45;;;;;;;1.30;0.38;;;;;;;;;;5036446;28;20067;-68
2021/09/16 06:52:13;;;;;;;2.72;0.30;;;;;;;;;;5041135;28;20028;-68
2021/09/16 06:54:40;;;;;;;1.65;0.20;;;;;;;;;;5034963;28;20545;-68
2021/09/16 06:57:07;;;;;;;1.27;0.32;;;;;;;;;;5025290;28;20112;-68
2021/09/16 06:59:34;;;;;;;3.38;0.32;;;;;;;;;;5026386;28;20026;-68
2021/09/16 07:02:01;;;;;;;0.75;0.10;;;;;;;;;;5029385;28;20068;-68
2021/09/16 07:04:29;;;;;;;0.40;0.10;;;;;;;;;;5024350;28;20038;-69
2021/09/16 07:06:58;;;;;;;0.57;0.20;;;;;;;;;;5031908;28;20091;-69
2021/09/16 07:09:25;;;;;;;2.20;0.30;;;;;;;;;;5027666;28;20109;-69
2021/09/16 07:11:53;;;;;;;1.02;0.20;;;;;;;;;;5028117;28;20037;-69
2021/09/16 07:14:20;;;;;;;0.88;0.20;;;;;;;;;;5030064;28;20049;-69
2021/09/16 07:16:47;;;;;;;1.50;0.20;;;;;;;;;;5029495;28;20111;-67
2021/09/16 07:19:14;;;;;;;1.30;0.40;;;;;;;;;;5030134;28;20445;-68
2021/09/16 07:21:41;;;;;;;1.95;0.30;;;;;;;;;;5032002;28;20105;-69
2021/09/16 07:24:08;;;;;;;2.35;0.20;;;;;;;;;;5025377;28;20123;-69
2021/09/16 07:26:36;;;;;;;3.67;0.70;;;;;;;;;;5041316;28;20028;-68
2021/09/16 07:29:03;;;;;;;1.95;0.68;;;;;;;;;;5025683;28;20041;-68
2021/09/16 07:31:30;;;;;;;4.00;1.63;;;;;;;;;;5028925;28;20052;-68
2021/09/16 07:33:58;;;;;;;2.63;0.50;;;;;;;;;;5027640;28;20234;-68
2021/09/16 07:36:25;;;;;;;4.55;3.38;;;;;;;;;;5028550;28;20060;-68
2021/09/16 07:38:52;;;;;;;4.43;2.20;;;;;;;;;;5031315;28;20121;-69
2021/09/16 07:41:19;;;;;;;2.17;1.13;;;;;;;;;;5033423;28;20168;-69
2021/09/16 07:43:46;;;;;;;1.13;0.50;;;;;;;;;;5020475;28;20670;-68
2021/09/16 07:46:13;;;;;;;7.22;3.17;;;;;;;;;;5023083;28;20535;-68
2021/09/16 07:48:41;;;;;;;2.17;0.77;;;;;;;;;;5025394;28;20029;-68
2021/09/16 07:51:08;;;;;;;1.67;0.45;;;;;;;;;;5030092;28;20035;-69
2021/09/16 07:53:35;;;;;;;1.35;0.30;;;;;;;;;;5027168;28;20029;-68
2021/09/16 07:56:02;;;;;;;3.72;0.77;;;;;;;;;;5030262;28;20617;-68
2021/09/16 07:58:29;;;;;;;2.33;0.40;;;;;;;;;;5024567;28;20045;-68
2021/09/16 08:00:56;;;;;;;2.50;0.75;;;;;;;;;;5031026;28;20037;-68
2021/09/16 08:03:23;;;;;;;2.90;0.88;;;;;;;;;;5031832;28;20021;-68
2021/09/16 08:05:50;;;;;;;2.47;0.60;;;;;;;;;;5030810;28;20033;-68
2021/09/16 08:08:18;;;;;;;5.18;1.80;;;;;;;;;;5030949;28;20482;-68
2021/09/16 08:10:45;;;;;;;5.50;1.77;;;;;;;;;;5024227;28;20030;-67
2021/09/16 08:13:12;;;;;;;5.20;0.60;;;;;;;;;;5027341;28;20014;-68
2021/09/16 08:15:39;;;;;;;3.92;1.20;;;;;;;;;;5027874;28;20055;-68
2021/09/16 08:18:06;;;;;;;5.72;1.02;;;;;;;;;;5027041;28;20557;-70
2021/09/16 08:20:39;;;;;;;2.05;0.80;;;;;;;;;;5029839;28;20513;-70
2021/09/16 08:23:07;;;;;;;4.65;1.60;;;;;;;;;;5028981;28;20025;-69
2021/09/16 08:25:34;;;;;;;5.43;1.15;;;;;;;;;;5032067;28;20087;-69
2021/09/16 08:28:01;;;;;;;9.48;3.22;;;;;;;;;;5029881;28;20112;-71
2021/09/16 08:30:29;;;;;;;6.68;2.30;;;;;;;;;;5031422;28;20044;-70
2021/09/16 08:32:56;;;;;;;2.28;0.85;;;;;;;;;;5032833;28;20076;-70
2021/09/16 08:35:24;;;;;;;3.90;0.95;;;;;;;;;;5029613;28;20108;-70
2021/09/16 08:37:51;;;;;;;3.97;0.70;;;;;;;;;;5031121;28;20076;-71
2021/09/16 08:40:19;;;;;;;2.70;0.40;;;;;;;;;;5029442;28;20108;-71
2021/09/16 08:42:46;;;;;;;1.23;0.30;;;;;;;;;;5034461;28;20032;-71
2021/09/16 08:45:15;;;;;;;2.60;0.45;;;;;;;;;;5036056;28;20474;-72
2021/09/16 08:47:43;;;;;;;3.03;0.45;;;;;;;;;;5033778;28;20022;-70
2021/09/16 08:50:10;;;;;;;2.17;0.50;;;;;;;;;;5021291;28;20033;-71
2021/09/16 08:52:41;;;;;;;3.70;0.60;;;;;;;;;;5035883;28;20037;-70
2021/09/16 08:55:10;;;;;;;1.98;0.52;;;;;;;;;;5023608;28;20486;-71
2021/09/16 08:57:38;;;;;;;2.75;0.93;;;;;;;;;;5033226;28;20033;-70
2021/09/16 09:00:07;;;;;;;2.55;0.50;;;;;;;;;;5017521;28;20075;-70
2021/09/16 09:02:34;;;;;;;3.15;0.65;;;;;;;;;;5035889;28;20083;-70
2021/09/16 09:05:03;;;;;;;6.55;0.68;;;;;;;;;;5033813;28;20063;-70
2021/09/16 09:07:40;;;;;;;2.35;0.60;;;;;;;;;;5034527;28;20092;-71
2021/09/16 09:10:08;;;;;;;2.33;1.10;;;;;;;;;;5030889;28;20401;-70
2021/09/16 09:12:36;;;;;;;4.30;0.80;;;;;;;;;;5033277;28;20030;-71
2021/09/16 09:15:05;;;;;;;1.77;0.60;;;;;;;;;;5035171;28;20024;-70
2021/09/16 09:17:33;;;;;;;3.75;1.35;;;;;;;;;;5033365;28;20116;-70
2021/09/16 09:20:08;;;;;;;5.85;0.90;;;;;;;;;;5033466;28;20017;-70
2021/09/16 09:22:41;;;;;;;8.35;1.10;;;;;;;;;;5033380;28;20068;-69
2021/09/16 09:25:12;;;;;;;3.70;1.45;;;;;;;;;;5034878;28;20037;-69
2021/09/16 09:27:50;;;;;;;3.10;1.27;;;;;;;;;;5032527;28;20036;-69
2021/09/16 09:30:19;;;;;;;3.10;0.90;;;;;;;;;;5035450;28;20017;-69
2021/09/16 09:32:46;;;;;;;6.22;1.23;;;;;;;;;;5032239;28;20083;-70
2021/09/16 09:35:25;;;;;;;6.82;1.13;;;;;;;;;;5032042;28;20021;-69
2021/09/16 09:37:52;;;;;;;8.90;1.65;;;;;;;;;;5034668;28;20036;-69
2021/09/16 09:40:30;;;;;;;7.47;1.27;;;;;;;;;;5034864;28;20028;-70
2021/09/16 09:43:17;;;;;;;6.88;1.35;;;;;;;;;;5034340;28;20021;-69
2021/09/16 09:46:16;;;;;;;6.05;2.03;;;;;;;;;;5034491;28;20104;-70
2021/09/16 09:48:46;;;;;;;3.67;1.55;;;;;;;;;;5012034;28;20037;-70
2021/09/16 09:51:14;;;;;;;5.10;1.38;;;;;;;;;;5034784;28;20022;-70
2021/09/16 09:53:45;;;;;;;4.30;1.48;;;;;;;;;;5032638;28;20025;-69
2021/09/16 09:56:17;;;;;;;5.35;1.70;;;;;;;;;;5033522;28;20418;-69
2021/09/16 09:58:44;;;;;;;5.40;1.80;;;;;;;;;;5033988;28;20482;-69
2021/09/16 10:01:28;;;;;;;4.05;1.85;;;;;;;;;;5034416;28;20048;-68
2021/09/16 10:03:55;;;;;;;7.70;2.15;;;;;;;;;;5034456;28;20100;-68
2021/09/16 10:06:22;;;;;;;5.95;2.38;;;;;;;;;;5032817;28;20611;-69
2021/09/16 10:09:11;;;;;;;5.68;2.53;;;;;;;;;;5034862;28;20501;-69
2021/09/16 10:11:39;;;;;;;3.17;2.25;;;;;;;;;;5034358;28;20029;-69
2021/09/16 10:14:07;;;;;;;8.60;3.22;;;;;;;;;;5033205;28;20033;-69
2021/09/16 10:16:34;;;;;;;9.30;4.90;;;;;;;;;;5028894;28;20030;-68
2021/09/16 10:19:01;;;;;;;8.43;3.20;;;;;;;;;;5033946;28;20022;-69
2021/09/16 10:21:28;;;;;;;7.10;3.55;;;;;;;;;;5032123;28;20560;-69
2021/09/16 10:23:57;;;;;;;7.07;2.55;;;;;;;;;;5030234;28;20482;-69
2021/09/16 10:26:38;;;;;;;4.88;2.40;;;;;;;;;;5032937;28;20025;-69
2021/09/16 10:29:06;;;;;;;5.55;1.85;;;;;;;;;;5032793;28;20045;-69
2021/09/16 10:31:33;;;;;;;5.70;2.10;;;;;;;;;;5034098;28;20093;-69
2021/09/16 10:34:20;;;;;;;3.88;1.85;;;;;;;;;;5033324;28;20120;-69
2021/09/16 10:37:05;;;;;;;6.38;2.20;;;;;;;;;;5034117;28;20044;-69
2021/09/16 10:39:37;;;;;;;3.63;1.55;;;;;;;;;;5033762;28;20022;-69
2021/09/16 10:42:05;;;;;;;6.82;1.85;;;;;;;;;;5026165;28;20033;-69
2021/09/16 10:44:32;;;;;;;5.70;2.47;;;;;;;;;;5032219;28;20029;-69
2021/09/16 10:47:14;;;;;;;6.10;2.88;;;;;;;;;;5033320;28;20504;-69
2021/09/16 10:49:42;;;;;;;5.57;2.20;;;;;;;;;;5031618;28;20029;-69
2021/09/16 10:52:12;;;;;;;5.57;2.15;;;;;;;;;;5033116;28;20067;-69
2021/09/16 10:54:49;;;;;;;9.35;3.35;;;;;;;;;;5032087;28;20074;-69
2021/09/16 10:57:18;;;;;;;6.90;3.45;;;;;;;;;;5028570;28;20108;-69
2021/09/16 10:59:54;;;;;;;7.60;2.67;;;;;;;;;;5032345;28;20482;-69
2021/09/16 11:02:24;;;;;;;11.88;2.85;;;;;;;;;;5029586;28;20028;-69
2021/09/16 11:04:57;;;;;;;5.78;2.25;;;;;;;;;;5031717;28;20083;-69
2021/09/16 11:07:34;;;;;;;6.82;3.22;;;;;;;;;;5031217;28;20025;-69
2021/09/16 11:12:47;;;;;;;6.78;3.92;;;;;;;;;;5032211;28;20176;-69
2021/09/16 11:15:16;;;;;;;5.47;3.47;;;;;;;;;;5032909;28;20025;-69
2021/09/16 11:17:43;;;;;;;7.07;3.50;;;;;;;;;;5032754;28;20390;-69
2021/09/16 11:20:12;;;;;;;8.45;4.03;;;;;;;;;;5031223;28;20053;-69
2021/09/16 11:22:40;;;;;;;8.38;3.88;;;;;;;;;;5032957;28;20550;-69
2021/09/16 11:25:07;;;;;;;6.10;3.60;;;;;;;;;;5031956;28;20025;-69
2021/09/16 11:27:36;;;;;;;7.50;3.25;;;;;;;;;;5032262;28;20434;-69
2021/09/16 11:30:14;;;;;;;8.60;3.53;;;;;;;;;;5032347;28;20381;-70
2021/09/16 11:32:42;;;;;;;6.07;3.70;;;;;;;;;;5030914;28;20374;-70
2021/09/16 11:35:11;;;;;;;9.10;4.32;;;;;;;;;;5031562;28;20021;-69
2021/09/16 11:37:41;;;;;;;5.10;3.10;;;;;;;;;;5029812;28;20056;-70
2021/09/16 11:40:10;;;;;;;6.93;2.42;;;;;;;;;;5031286;28;20049;-70
2021/09/16 11:42:38;;;;;;;4.68;2.35;;;;;;;;;;5031932;28;20048;-70
2021/09/16 11:45:05;;;;;;;11.23;3.58;;;;;;;;;;5031628;28;20028;-70
2021/09/16 11:47:52;;;;;;;9.55;6.28;;;;;;;;;;5029595;28;20033;-70
2021/09/16 11:50:23;;;;;;;9.40;4.78;;;;;;;;;;5031657;28;20034;-70
2021/09/16 11:52:54;;;;;;;9.57;4.22;;;;;;;;;;5029623;28;20099;-70
2021/09/16 11:55:21;;;;;;;7.07;3.30;;;;;;;;;;5030891;28;20026;-70
2021/09/16 11:57:59;;;;;;;6.47;3.38;;;;;;;;;;5030316;28;20065;-70
2021/09/16 12:00:32;;;;;;;9.55;3.65;;;;;;;;;;5032789;28;20459;-70
2021/09/16 12:03:01;;;;;;;8.35;3.47;;;;;;;;;;5032063;28;20033;-70
2021/09/16 12:05:36;;;;;;;9.05;3.78;;;;;;;;;;5028087;28;20473;-70
2021/09/16 12:08:05;;;;;;;6.82;2.78;;;;;;;;;;5029566;28;20025;-70
2021/09/16 12:10:39;;;;;;;4.65;2.00;;;;;;;;;;5028202;28;20056;-70
2021/09/16 12:13:07;;;;;;;4.53;1.92;;;;;;;;;;5028858;28;20030;-70
2021/09/16 12:15:36;;;;;;;4.22;1.77;;;;;;;;;;5031506;28;20067;-70
2021/09/16 12:18:04;;;;;;;4.45;2.33;;;;;;;;;;5031387;28;20474;-70
2021/09/16 12:20:31;;;;;;;7.05;2.10;;;;;;;;;;5031185;28;20394;-70
2021/09/16 12:22:58;;;;;;;4.13;2.10;;;;;;;;;;5030689;28;20072;-70
2021/09/16 12:25:26;;;;;;;5.25;2.22;;;;;;;;;;5031191;28;20088;-70
2021/09/16 12:28:03;;;;;;;7.32;2.38;;;;;;;;;;5031505;28;20028;-70
2021/09/16 12:30:35;;;;;;;6.78;1.80;;;;;;;;;;5030814;28;20049;-70
2021/09/16 12:33:02;;;;;;;5.40;2.63;;;;;;;;;;5029614;28;20389;-70
2021/09/16 12:35:29;;;;;;;7.32;2.38;;;;;;;;;;5030348;28;20031;-71
2021/09/16 12:38:06;;;;;;;4.22;2.25;;;;;;;;;;5030882;28;20444;-70
2021/09/16 12:40:33;;;;;;;7.93;2.05;;;;;;;;;;5030354;28;20029;-70
2021/09/16 12:43:07;;;;;;;6.40;2.17;;;;;;;;;;5032108;28;20032;-70
2021/09/16 12:45:34;;;;;;;8.13;2.08;;;;;;;;;;5030109;28;20097;-70
2021/09/16 12:48:05;;;;;;;3.33;2.13;;;;;;;;;;5030564;28;20021;-70
2021/09/16 12:50:32;;;;;;;4.85;1.98;;;;;;;;;;5027188;28;20018;-70
2021/09/16 12:53:00;;;;;;;6.13;2.35;;;;;;;;;;5031124;28;20045;-70
2021/09/16 12:55:27;;;;;;;6.25;2.13;;;;;;;;;;5031410;28;20017;-70
2021/09/16 12:58:06;;;;;;;5.20;2.53;;;;;;;;;;5031115;28;20069;-70
2021/09/16 13:00:33;;;;;;;8.23;2.90;;;;;;;;;;5029566;28;20021;-70
2021/09/16 13:03:02;;;;;;;5.07;2.17;;;;;;;;;;5030818;28;20062;-70
2021/09/16 13:05:35;;;;;;;8.13;2.28;;;;;;;;;;5030146;28;20498;-70
2021/09/16 13:08:05;;;;;;;5.22;2.25;;;;;;;;;;5031373;28;20064;-70
2021/09/16 13:10:32;;;;;;;8.02;2.28;;;;;;;;;;5031184;28;20454;-70
2021/09/16 13:13:02;;;;;;;6.30;2.38;;;;;;;;;;5031288;28;20363;-70
2021/09/16 13:15:33;;;;;;;7.03;2.65;;;;;;;;;;5030782;28;20121;-70
2021/09/16 13:18:01;;;;;;;3.95;2.20;;;;;;;;;;5030649;28;20022;-71
2021/09/16 13:20:28;;;;;;;5.40;2.40;;;;;;;;;;5030215;28;20042;-71
2021/09/16 13:22:55;;;;;;;3.75;2.05;;;;;;;;;;5029846;28;20025;-71
2021/09/16 13:25:23;;;;;;;8.50;2.05;;;;;;;;;;5030534;28;20032;-71
2021/09/16 13:27:50;;;;;;;5.35;1.60;;;;;;;;;;5027168;28;20044;-71
2021/09/16 13:30:18;;;;;;;8.38;3.00;;;;;;;;;;5033053;28;20018;-70
2021/09/16 13:32:45;;;;;;;7.53;2.10;;;;;;;;;;5033673;28;20471;-70
2021/09/16 13:35:13;;;;;;;5.65;2.40;;;;;;;;;;5032279;28;20029;-71
2021/09/16 13:37:40;;;;;;;6.65;2.88;;;;;;;;;;5030918;28;20056;-70
2021/09/16 13:40:08;;;;;;;5.68;2.47;;;;;;;;;;5029841;28;20055;-71
2021/09/16 13:42:36;;;;;;;11.75;2.50;;;;;;;;;;5031820;28;20017;-70
2021/09/16 13:45:04;;;;;;;5.75;2.35;;;;;;;;;;5029674;28;20363;-70
2021/09/16 13:47:32;;;;;;;5.25;2.33;;;;;;;;;;5033107;28;20037;-71
2021/09/16 13:49:59;;;;;;;6.68;2.50;;;;;;;;;;5033331;28;20463;-70
2021/09/16 13:52:27;;;;;;;8.20;2.33;;;;;;;;;;5032474;28;20041;-71
2021/09/16 13:54:54;;;;;;;7.55;2.53;;;;;;;;;;5031651;28;20449;-70
2021/09/16 13:57:21;;;;;;;7.50;2.75;;;;;;;;;;5032838;28;20053;-70
2021/09/16 13:59:48;;;;;;;5.38;2.40;;;;;;;;;;5031852;28;20029;-70
2021/09/16 14:02:15;;;;;;;5.47;2.33;;;;;;;;;;5032340;28;20025;-70
2021/09/16 14:04:42;;;;;;;3.80;2.22;;;;;;;;;;5032016;28;20033;-70
2021/09/16 14:07:09;;;;;;;7.18;2.75;;;;;;;;;;5031337;28;20021;-70
2021/09/16 14:09:37;;;;;;;5.63;2.90;;;;;;;;;;5031497;28;20091;-70
2021/09/16 14:12:04;;;;;;;5.50;2.53;;;;;;;;;;5033059;28;20021;-70
2021/09/16 14:14:31;;;;;;;5.50;2.10;;;;;;;;;;5029651;28;20022;-70
2021/09/16 14:16:58;;;;;;;4.72;2.38;;;;;;;;;;5029587;28;20127;-71
2021/09/16 14:19:26;;;;;;;6.07;2.83;;;;;;;;;;5032420;28;20037;-71
2021/09/16 14:21:53;;;;;;;5.50;2.40;;;;;;;;;;5032415;28;20132;-71
2021/09/16 14:24:20;;;;;;;6.95;3.03;;;;;;;;;;5031877;28;20044;-71
2021/09/16 14:26:47;;;;;;;6.97;2.60;;;;;;;;;;5030751;28;20122;-70
2021/09/16 14:29:14;;;;;;;4.13;2.58;;;;;;;;;;5032383;28;20076;-71
2021/09/16 14:31:41;;;;;;;5.18;2.28;;;;;;;;;;5033387;28;20017;-71
2021/09/16 14:34:09;;;;;;;4.70;2.00;;;;;;;;;;5030247;28;20060;-71
2021/09/16 14:36:36;;;;;;;5.97;2.30;;;;;;;;;;5030967;28;20021;-71
2021/09/16 14:39:03;;;;;;;6.05;2.35;;;;;;;;;;5032860;28;20490;-71
2021/09/16 14:41:30;;;;;;;6.15;2.35;;;;;;;;;;5033659;28;20482;-70
2021/09/16 14:43:57;;;;;;;7.40;2.53;;;;;;;;;;5031872;28;20037;-71
2021/09/16 14:46:24;;;;;;;6.50;2.35;;;;;;;;;;5031295;28;20041;-70
2021/09/16 14:48:51;;;;;;;7.20;2.88;;;;;;;;;;5030116;28;20052;-70
2021/09/16 14:51:18;;;;;;;3.97;2.58;;;;;;;;;;5033287;28;20026;-70
2021/09/16 14:53:46;;;;;;;5.45;2.00;;;;;;;;;;5030061;28;20113;-70